Time;durP1;ratioP1;P1;durP2;ratioP2;P2;SDS_P1;SDS_P2;PMS_P1;PMS_P2;Temp;Humidity;BMP_temperature;BMP_pressure;BME280_temperature;BME280_humidity;BME280_pressure;Samples;Min_cycle;Max_cycle;Signal;HPM_P1;HPM_P2
2021/06/19 00:00:29;;;;;;;31.30;28.80;;;25.90;57.60;;;;;;4995635;28;21204;-81
2021/06/19 00:02:58;;;;;;;29.43;27.27;;;25.90;57.80;;;;;;4997057;28;20450;-81
2021/06/19 00:05:27;;;;;;;30.10;27.83;;;25.80;58.00;;;;;;4996877;28;20464;-81
2021/06/19 00:07:54;;;;;;;31.83;28.90;;;25.70;58.30;;;;;;5000644;28;20465;-81
2021/06/19 00:10:22;;;;;;;29.37;27.10;;;25.80;58.30;;;;;;4999686;28;20470;-81
2021/06/19 00:12:51;;;;;;;30.70;28.27;;;25.80;58.40;;;;;;4984168;28;20554;-81
2021/06/19 00:15:21;;;;;;;29.43;27.43;;;25.80;58.80;;;;;;4981196;28;20474;-81
2021/06/19 00:17:48;;;;;;;29.50;27.50;;;25.70;59.00;;;;;;4988388;28;20463;-81
2021/06/19 00:20:17;;;;;;;30.40;27.87;;;25.80;59.30;;;;;;4974865;28;20459;-81
2021/06/19 00:22:47;;;;;;;31.27;28.93;;;25.70;59.50;;;;;;4987244;28;21064;-81
2021/06/19 00:25:16;;;;;;;30.30;28.07;;;25.80;59.90;;;;;;4999151;28;20557;-78
2021/06/19 00:27:44;;;;;;;31.53;29.00;;;25.60;61.90;;;;;;4978140;28;20468;-81
2021/06/19 00:30:16;;;;;;;31.70;28.80;;;25.50;63.40;;;;;;4975680;28;20465;-85
2021/06/19 00:32:44;;;;;;;31.90;29.30;;;25.30;64.20;;;;;;4986029;28;20457;-82
2021/06/19 00:35:11;;;;;;;31.83;28.63;;;25.20;64.40;;;;;;5002610;28;20482;-82
2021/06/19 00:37:38;;;;;;;33.00;29.53;;;25.10;64.60;;;;;;4980090;28;20465;-82
2021/06/19 00:40:07;;;;;;;32.40;29.07;;;25.20;64.70;;;;;;5001255;28;20573;-82
2021/06/19 00:42:34;;;;;;;31.30;28.67;;;25.10;64.70;;;;;;4986562;28;20467;-82
2021/06/19 00:45:03;;;;;;;32.67;29.37;;;25.10;65.10;;;;;;4999295;28;20483;-82
2021/06/19 00:47:30;;;;;;;31.53;28.47;;;24.90;66.00;;;;;;4976835;28;20466;-82
2021/06/19 00:49:57;;;;;;;30.73;28.07;;;24.90;65.70;;;;;;4964666;28;20462;-82
2021/06/19 00:52:24;;;;;;;31.50;28.67;;;24.70;66.00;;;;;;4993031;28;20464;-82
2021/06/19 00:54:51;;;;;;;30.97;28.57;;;24.60;67.10;;;;;;4985686;28;20529;-82
2021/06/19 00:57:18;;;;;;;31.57;29.07;;;24.70;67.20;;;;;;4991992;28;22490;-83
2021/06/19 00:59:45;;;;;;;31.63;28.70;;;24.60;68.50;;;;;;4989440;28;21331;-82
2021/06/19 01:02:14;;;;;;;30.40;28.00;;;24.50;68.70;;;;;;4986214;28;20462;-82
2021/06/19 01:04:40;;;;;;;30.30;28.20;;;24.40;68.90;;;;;;5002024;28;20483;-82
2021/06/19 01:07:07;;;;;;;29.77;27.17;;;24.30;69.40;;;;;;4992432;28;20454;-82
2021/06/19 01:09:35;;;;;;;30.17;27.67;;;24.30;70.10;;;;;;4980913;28;20598;-82
2021/06/19 01:12:02;;;;;;;30.67;28.17;;;24.20;70.70;;;;;;4977449;28;20577;-82
2021/06/19 01:14:29;;;;;;;31.60;28.40;;;24.10;71.60;;;;;;4984208;28;20494;-82
2021/06/19 01:16:56;;;;;;;30.13;27.70;;;24.00;71.90;;;;;;4976831;28;20473;-82
2021/06/19 01:19:24;;;;;;;31.23;28.77;;;23.90;71.70;;;;;;4977249;28;20455;-82
2021/06/19 01:21:55;;;;;;;30.87;28.60;;;24.00;71.40;;;;;;4960592;28;21125;-82
2021/06/19 01:24:23;;;;;;;32.57;29.63;;;23.90;71.30;;;;;;4986447;28;20474;-82
2021/06/19 01:26:52;;;;;;;31.33;28.63;;;23.90;71.30;;;;;;4994426;28;20459;-82
2021/06/19 01:29:20;;;;;;;31.27;28.60;;;23.90;71.80;;;;;;4991676;28;20805;-82
2021/06/19 01:31:47;;;;;;;30.53;28.43;;;23.90;72.30;;;;;;4959962;28;20502;-81
2021/06/19 01:34:14;;;;;;;31.10;28.90;;;23.80;73.10;;;;;;4984727;28;20493;-82
2021/06/19 01:36:41;;;;;;;31.17;28.70;;;23.70;73.60;;;;;;4975808;28;20468;-82
2021/06/19 01:39:08;;;;;;;31.27;28.63;;;23.60;73.90;;;;;;4978838;28;20955;-82
2021/06/19 01:41:35;;;;;;;30.47;28.30;;;23.70;73.60;;;;;;4992231;28;20472;-82
2021/06/19 01:44:05;;;;;;;31.37;28.77;;;23.80;72.90;;;;;;4989463;28;21215;-81
2021/06/19 01:46:34;;;;;;;31.10;28.77;;;23.70;72.70;;;;;;4986511;28;20471;-82
2021/06/19 01:49:01;;;;;;;30.97;28.60;;;23.70;72.80;;;;;;4991760;28;20976;-82
2021/06/19 01:51:28;;;;;;;31.90;29.27;;;23.70;74.00;;;;;;4992373;28;20805;-82
2021/06/19 01:53:56;;;;;;;32.00;29.20;;;23.70;74.40;;;;;;4996253;28;20571;-82
2021/06/19 01:56:23;;;;;;;31.20;28.60;;;23.70;74.50;;;;;;4991395;28;20496;-82
2021/06/19 01:58:50;;;;;;;31.83;29.43;;;23.60;75.00;;;;;;4985914;28;20458;-82
2021/06/19 02:01:19;;;;;;;31.83;29.07;;;23.60;75.10;;;;;;4987995;28;21388;-82
2021/06/19 02:03:47;;;;;;;30.83;28.73;;;23.60;75.40;;;;;;4990411;28;20995;-82
2021/06/19 02:06:14;;;;;;;31.40;28.97;;;23.60;75.60;;;;;;4986779;28;20597;-81
2021/06/19 02:08:42;;;;;;;31.03;28.53;;;23.50;75.90;;;;;;4998488;28;20475;-81
2021/06/19 02:11:10;;;;;;;30.47;28.30;;;23.50;76.50;;;;;;4989548;28;20474;-82
2021/06/19 02:13:37;;;;;;;30.27;27.93;;;23.50;77.60;;;;;;4983971;28;20897;-81
2021/06/19 02:16:05;;;;;;;31.87;29.17;;;23.40;78.40;;;;;;4993925;28;22358;-82
2021/06/19 02:18:33;;;;;;;31.17;28.30;;;23.40;79.20;;;;;;4984421;28;21053;-81
2021/06/19 02:21:00;;;;;;;31.40;28.80;;;23.30;79.40;;;;;;4977691;28;20546;-82
2021/06/19 02:23:28;;;;;;;31.77;29.27;;;23.20;79.40;;;;;;4996409;28;20480;-82
2021/06/19 02:25:55;;;;;;;30.53;27.90;;;23.20;79.70;;;;;;5006123;28;21286;-81
2021/06/19 02:28:24;;;;;;;30.87;28.37;;;23.10;80.30;;;;;;4985983;28;20469;-82
2021/06/19 02:30:55;;;;;;;31.80;28.70;;;23.10;80.70;;;;;;5007020;28;20576;-82
2021/06/19 02:33:22;;;;;;;32.10;29.50;;;23.20;80.20;;;;;;4995886;28;20827;-82
2021/06/19 02:35:52;;;;;;;30.60;28.00;;;23.10;81.10;;;;;;4984495;28;20497;-82
2021/06/19 02:38:20;;;;;;;30.83;28.30;;;23.10;81.50;;;;;;4989125;28;20462;-81
2021/06/19 02:40:48;;;;;;;31.87;28.80;;;23.00;82.20;;;;;;4984973;28;20569;-82
2021/06/19 02:43:17;;;;;;;30.03;27.80;;;23.00;82.40;;;;;;4991480;28;20473;-82
2021/06/19 02:45:44;;;;;;;29.93;27.67;;;22.90;82.70;;;;;;5012644;28;21313;-81
2021/06/19 02:48:13;;;;;;;31.30;28.87;;;22.90;83.00;;;;;;4984031;28;20471;-82
2021/06/19 02:50:42;;;;;;;30.53;28.17;;;22.80;82.70;;;;;;4982532;28;20459;-82
2021/06/19 02:53:12;;;;;;;29.63;27.17;;;22.70;82.80;;;;;;4989021;28;21098;-82
2021/06/19 02:55:42;;;;;;;30.10;27.80;;;22.60;83.30;;;;;;5017822;28;20489;-81
2021/06/19 02:58:10;;;;;;;30.17;27.87;;;22.60;83.30;;;;;;4973881;28;20465;-82
2021/06/19 03:00:38;;;;;;;30.30;27.73;;;22.60;83.40;;;;;;4996966;28;20478;-81
2021/06/19 03:03:05;;;;;;;31.50;29.10;;;22.60;83.50;;;;;;4986809;28;20478;-81
2021/06/19 03:05:34;;;;;;;32.20;29.60;;;22.60;83.90;;;;;;4990789;28;20458;-82
2021/06/19 03:08:01;;;;;;;31.60;28.60;;;22.50;83.70;;;;;;5002219;28;20534;-81
2021/06/19 03:10:32;;;;;;;29.87;27.47;;;22.50;83.70;;;;;;4984931;28;21031;-82
2021/06/19 03:12:59;;;;;;;31.63;28.53;;;22.60;83.50;;;;;;4985333;28;20473;-81
2021/06/19 03:15:27;;;;;;;31.23;28.50;;;22.50;83.60;;;;;;4986608;28;20615;-82
2021/06/19 03:17:54;;;;;;;31.47;28.93;;;22.50;83.80;;;;;;4988900;28;20465;-82
2021/06/19 03:20:21;;;;;;;30.87;28.47;;;22.50;83.70;;;;;;4989602;28;20623;-81
2021/06/19 03:22:51;;;;;;;31.07;28.87;;;22.50;83.30;;;;;;4981253;28;21102;-82
2021/06/19 03:25:20;;;;;;;31.77;29.27;;;22.60;82.90;;;;;;4980115;28;20463;-82
2021/06/19 03:27:49;;;;;;;29.53;27.33;;;22.60;82.90;;;;;;5017530;28;20574;-82
2021/06/19 03:30:18;;;;;;;29.80;27.50;;;22.60;82.80;;;;;;4986314;28;20545;-81
2021/06/19 03:32:45;;;;;;;30.60;27.97;;;22.60;82.80;;;;;;4972962;28;22232;-81
2021/06/19 03:35:13;;;;;;;33.63;30.70;;;22.60;82.70;;;;;;4979748;28;20496;-82
2021/06/19 03:37:40;;;;;;;31.00;28.70;;;22.60;82.70;;;;;;4987883;28;20471;-82
2021/06/19 03:40:10;;;;;;;32.63;29.50;;;22.50;82.80;;;;;;4976265;28;20459;-81
2021/06/19 03:42:36;;;;;;;31.37;28.87;;;22.50;82.90;;;;;;4992573;28;20463;-81
2021/06/19 03:45:07;;;;;;;30.30;28.00;;;22.50;83.10;;;;;;4975778;28;20565;-81
2021/06/19 03:47:34;;;;;;;30.93;28.50;;;22.60;83.10;;;;;;4993133;28;20474;-82
2021/06/19 03:50:01;;;;;;;30.90;28.30;;;22.50;83.10;;;;;;4995459;28;20473;-81
2021/06/19 03:52:28;;;;;;;31.13;28.10;;;22.40;83.40;;;;;;4993508;28;20493;-81
2021/06/19 03:54:54;;;;;;;31.20;28.80;;;22.40;83.60;;;;;;4992962;28;20489;-82
2021/06/19 03:57:26;;;;;;;31.63;28.90;;;22.40;83.80;;;;;;5012350;28;20473;-82
2021/06/19 03:59:54;;;;;;;31.00;28.57;;;22.50;83.70;;;;;;4986590;28;20482;-82
2021/06/19 04:02:23;;;;;;;32.80;30.27;;;22.40;83.90;;;;;;4991794;28;20502;-81
2021/06/19 04:04:50;;;;;;;30.63;28.33;;;22.40;84.00;;;;;;4974586;28;20601;-81
2021/06/19 04:07:18;;;;;;;34.10;31.23;;;22.50;83.80;;;;;;4996950;28;20467;-82
2021/06/19 04:09:47;;;;;;;30.27;28.27;;;22.50;83.50;;;;;;4988336;28;20482;-81
2021/06/19 04:12:15;;;;;;;30.27;27.87;;;22.50;84.00;;;;;;4996399;28;20535;-82
2021/06/19 04:14:42;;;;;;;31.93;29.63;;;22.50;83.70;;;;;;5000714;28;20524;-81
2021/06/19 04:17:09;;;;;;;32.27;30.10;;;22.60;83.40;;;;;;4990398;28;20602;-81
2021/06/19 04:19:38;;;;;;;33.70;30.97;;;22.60;83.40;;;;;;4969586;28;20459;-81
2021/06/19 04:22:06;;;;;;;34.37;31.27;;;22.60;83.60;;;;;;4969924;28;20463;-82
2021/06/19 04:24:34;;;;;;;32.90;29.90;;;22.60;83.40;;;;;;4989480;28;20501;-81
2021/06/19 04:27:02;;;;;;;31.97;29.77;;;22.70;83.10;;;;;;4977481;28;21247;-81
2021/06/19 04:29:30;;;;;;;32.87;30.00;;;22.70;83.00;;;;;;5002178;28;20454;-82
2021/06/19 04:31:58;;;;;;;32.20;30.00;;;22.80;82.80;;;;;;5000068;28;20506;-81
2021/06/19 04:34:25;;;;;;;36.33;33.50;;;22.70;83.10;;;;;;4975252;28;20490;-79
2021/06/19 04:36:54;;;;;;;33.70;30.83;;;22.70;83.10;;;;;;4967522;28;20935;-76
2021/06/19 04:39:21;;;;;;;33.27;30.77;;;22.80;82.80;;;;;;4985803;28;20462;-79
2021/06/19 04:41:53;;;;;;;33.23;30.40;;;22.90;82.60;;;;;;4983085;28;20467;-76
2021/06/19 04:44:41;;;;;;;34.27;31.60;;;22.90;82.50;;;;;;4990078;28;21016;-79
2021/06/19 04:47:08;;;;;;;35.17;31.93;;;23.00;82.70;;;;;;4984336;28;20539;-78
2021/06/19 04:49:35;;;;;;;37.00;33.90;;;23.20;81.60;;;;;;4990264;28;20450;-82
2021/06/19 04:52:04;;;;;;;33.87;30.97;;;23.40;81.10;;;;;;4982187;28;20523;-83
2021/06/19 04:54:37;;;;;;;35.33;32.50;;;23.50;80.80;;;;;;4986866;28;20583;-83
2021/06/19 04:57:06;;;;;;;36.57;33.93;;;23.60;80.60;;;;;;4981390;28;20634;-83
2021/06/19 04:59:33;;;;;;;33.77;31.33;;;23.70;80.40;;;;;;4978176;28;20463;-83
2021/06/19 05:02:00;;;;;;;35.97;32.90;;;23.90;79.70;;;;;;4970700;28;20471;-83
2021/06/19 05:04:27;;;;;;;34.60;32.07;;;24.00;79.60;;;;;;5000287;28;20480;-83
2021/06/19 05:06:55;;;;;;;35.00;32.10;;;24.00;79.10;;;;;;4984789;28;20493;-83
2021/06/19 05:09:24;;;;;;;34.77;32.47;;;24.00;79.00;;;;;;5000663;28;20837;-83
2021/06/19 05:11:51;;;;;;;38.53;35.53;;;24.00;79.30;;;;;;4988006;28;20467;-83
2021/06/19 05:14:18;;;;;;;37.33;34.83;;;24.00;79.20;;;;;;4989731;28;20856;-83
2021/06/19 05:16:45;;;;;;;38.13;35.00;;;24.10;79.10;;;;;;4982289;28;20845;-83
2021/06/19 05:19:12;;;;;;;36.60;34.07;;;24.00;79.40;;;;;;4975040;28;20466;-83
2021/06/19 05:21:39;;;;;;;34.27;31.70;;;24.10;79.60;;;;;;4981937;28;20549;-83
2021/06/19 05:24:08;;;;;;;34.60;32.00;;;24.20;79.30;;;;;;4981828;28;20955;-83
2021/06/19 05:26:36;;;;;;;41.07;38.50;;;24.40;78.70;;;;;;4979820;28;20455;-83
2021/06/19 05:29:03;;;;;;;35.07;32.53;;;24.60;78.10;;;;;;4971235;28;21034;-83
2021/06/19 05:31:30;;;;;;;35.63;33.13;;;24.80;77.60;;;;;;4975361;28;20459;-84
2021/06/19 05:33:57;;;;;;;38.03;35.13;;;25.00;77.20;;;;;;4987128;28;20531;-83
2021/06/19 05:36:24;;;;;;;41.00;38.20;;;25.10;76.30;;;;;;4981710;28;20478;-84
2021/06/19 05:38:51;;;;;;;35.33;32.83;;;25.20;76.30;;;;;;4970902;28;20589;-84
2021/06/19 05:41:18;;;;;;;39.00;36.10;;;25.30;76.30;;;;;;4970706;28;20515;-84
2021/06/19 05:43:47;;;;;;;36.63;33.73;;;25.50;75.80;;;;;;4984989;28;21026;-84
2021/06/19 05:46:14;;;;;;;40.13;37.43;;;25.70;75.20;;;;;;4978801;28;20561;-84
2021/06/19 05:48:41;;;;;;;41.53;38.30;;;25.60;74.90;;;;;;4974766;28;20481;-84
2021/06/19 05:51:08;;;;;;;35.43;32.90;;;25.80;74.70;;;;;;4986242;28;20765;-84
2021/06/19 05:53:34;;;;;;;39.20;36.33;;;25.90;74.60;;;;;;4988101;28;20486;-84
2021/06/19 05:56:01;;;;;;;40.63;37.63;;;26.00;74.10;;;;;;4991532;28;20888;-85
2021/06/19 05:58:28;;;;;;;38.55;35.75;;;26.10;73.40;;;;;;4989544;28;20980;-85
2021/06/19 06:00:56;;;;;;;38.40;35.40;;;26.10;73.20;;;;;;4988463;28;20203;-84
2021/06/19 06:03:23;;;;;;;38.80;36.00;;;26.10;73.60;;;;;;4998502;28;20825;-84
2021/06/19 06:05:50;;;;;;;38.83;36.13;;;26.10;72.80;;;;;;4980589;28;20582;-84
2021/06/19 06:08:17;;;;;;;37.80;35.23;;;26.10;72.30;;;;;;4970507;28;20467;-78
2021/06/19 06:10:44;;;;;;;40.73;37.47;;;26.10;71.50;;;;;;4972326;28;20545;-80
2021/06/19 06:13:11;;;;;;;38.17;34.80;;;26.20;71.90;;;;;;4993366;28;20550;-80
2021/06/19 06:15:38;;;;;;;39.87;36.83;;;26.20;72.40;;;;;;5000284;28;20470;-80
2021/06/19 06:18:06;;;;;;;39.17;36.27;;;26.50;71.00;;;;;;4979588;28;20462;-81
2021/06/19 06:20:33;;;;;;;39.00;36.00;;;26.60;69.40;;;;;;4983250;28;20473;-79
2021/06/19 06:23:00;;;;;;;38.53;35.73;;;26.60;69.20;;;;;;4998867;28;20462;-80
2021/06/19 06:25:27;;;;;;;39.33;36.50;;;26.60;69.00;;;;;;4999366;28;20588;-78
2021/06/19 06:27:54;;;;;;;36.53;33.70;;;26.60;69.00;;;;;;4986651;28;20458;-77
2021/06/19 06:30:22;;;;;;;39.23;36.33;;;26.60;68.80;;;;;;4990822;28;20470;-78
2021/06/19 06:32:49;;;;;;;39.10;36.00;;;26.90;68.30;;;;;;4988286;28;20458;-77
2021/06/19 06:35:17;;;;;;;40.40;37.50;;;27.00;68.40;;;;;;5054280;28;20564;-78
2021/06/19 06:37:44;;;;;;;41.17;38.13;;;27.10;68.10;;;;;;4983024;28;20478;-77
2021/06/19 06:40:13;;;;;;;38.13;35.63;;;27.30;67.50;;;;;;4998045;28;20557;-77
2021/06/19 06:42:41;;;;;;;38.97;36.17;;;27.30;66.90;;;;;;4986622;28;20596;-77
2021/06/19 06:45:09;;;;;;;40.00;36.93;;;27.30;66.50;;;;;;4998506;28;20477;-78
2021/06/19 06:47:36;;;;;;;39.93;36.90;;;27.30;65.50;;;;;;4986237;28;20451;-79
2021/06/19 06:50:04;;;;;;;39.30;36.40;;;27.20;65.50;;;;;;4989453;28;20492;-79
2021/06/19 06:52:33;;;;;;;37.87;35.20;;;27.10;65.90;;;;;;5006075;28;20875;-77
2021/06/19 06:55:01;;;;;;;39.27;36.47;;;27.40;65.60;;;;;;5003454;28;20991;-75
2021/06/19 06:57:28;;;;;;;38.57;35.77;;;27.40;65.80;;;;;;4974767;28;20474;-77
2021/06/19 06:59:54;;;;;;;36.73;34.17;;;27.60;65.00;;;;;;4961029;28;20919;-78
2021/06/19 07:02:21;;;;;;;38.00;35.50;;;27.70;63.70;;;;;;4964392;28;20473;-81
2021/06/19 07:04:50;;;;;;;35.90;33.40;;;27.90;63.40;;;;;;4978658;28;20493;-80
2021/06/19 07:07:19;;;;;;;35.90;33.30;;;27.70;63.70;;;;;;4980701;28;20457;-80
2021/06/19 07:09:47;;;;;;;36.43;34.23;;;27.50;63.30;;;;;;4965625;28;20461;-80
2021/06/19 07:12:14;;;;;;;37.13;34.53;;;27.40;63.60;;;;;;4960608;28;20468;-80
2021/06/19 07:14:41;;;;;;;36.40;33.67;;;27.60;63.00;;;;;;4962252;28;20505;-78
2021/06/19 07:17:09;;;;;;;39.30;36.40;;;27.50;63.30;;;;;;4958030;28;20483;-77
2021/06/19 07:19:39;;;;;;;36.70;34.00;;;27.60;63.00;;;;;;4958796;28;20473;-77
2021/06/19 07:22:07;;;;;;;36.00;33.13;;;27.60;63.20;;;;;;4958201;28;20479;-78
2021/06/19 07:24:34;;;;;;;38.23;35.20;;;27.60;62.90;;;;;;4960857;28;20487;-78
2021/06/19 07:27:04;;;;;;;37.50;34.50;;;27.60;62.90;;;;;;4960999;28;20455;-76
2021/06/19 07:29:31;;;;;;;39.83;36.00;;;27.70;63.00;;;;;;4965577;28;20934;-78
2021/06/19 07:31:58;;;;;;;36.43;33.40;;;27.70;63.70;;;;;;4960731;28;20471;-78
2021/06/19 07:34:27;;;;;;;35.20;32.90;;;27.80;62.20;;;;;;4958882;28;20575;-78
2021/06/19 07:36:53;;;;;;;37.40;34.77;;;27.90;61.60;;;;;;4968828;28;20498;-78
2021/06/19 07:39:21;;;;;;;37.60;34.73;;;27.90;61.70;;;;;;4967648;28;20840;-78
2021/06/19 07:41:48;;;;;;;37.97;35.40;;;28.00;61.70;;;;;;4966269;28;20547;-76
2021/06/19 07:44:16;;;;;;;35.90;33.50;;;28.10;62.20;;;;;;4976758;28;20573;-78
2021/06/19 07:46:46;;;;;;;34.37;32.07;;;28.20;61.40;;;;;;4966565;28;21030;-78
2021/06/19 07:49:13;;;;;;;36.33;33.70;;;28.20;61.00;;;;;;4980223;28;20473;-79
2021/06/19 07:51:40;;;;;;;38.73;36.03;;;28.20;61.50;;;;;;4964149;28;20526;-79
2021/06/19 07:54:07;;;;;;;36.57;34.27;;;28.50;61.30;;;;;;4963200;28;20480;-79
2021/06/19 07:56:34;;;;;;;37.10;34.47;;;28.60;60.50;;;;;;4973432;28;20482;-80
2021/06/19 07:59:01;;;;;;;35.70;33.00;;;28.50;60.50;;;;;;4962417;28;20473;-79
2021/06/19 08:01:29;;;;;;;36.53;33.83;;;28.60;60.60;;;;;;4982473;28;20573;-82
2021/06/19 08:03:56;;;;;;;37.57;34.97;;;28.60;60.70;;;;;;4966620;28;20513;-80
2021/06/19 08:06:23;;;;;;;36.67;33.97;;;28.70;60.10;;;;;;4968135;28;20461;-80
2021/06/19 08:08:54;;;;;;;37.47;34.00;;;28.80;59.90;;;;;;4958286;28;20472;-80
2021/06/19 08:11:21;;;;;;;40.10;37.27;;;28.80;60.00;;;;;;4965559;28;20468;-80
2021/06/19 08:13:48;;;;;;;38.73;35.83;;;28.90;60.00;;;;;;4960025;28;20497;-80
2021/06/19 08:16:17;;;;;;;38.90;36.00;;;28.90;59.90;;;;;;4963450;28;20459;-79
2021/06/19 08:18:45;;;;;;;41.83;38.43;;;28.90;59.80;;;;;;4956048;28;20464;-79
2021/06/19 08:21:12;;;;;;;36.27;33.47;;;29.00;59.80;;;;;;4962297;28;20545;-80
2021/06/19 08:23:39;;;;;;;36.43;33.73;;;29.10;59.00;;;;;;4966260;28;20605;-79
2021/06/19 08:26:08;;;;;;;37.93;35.23;;;28.90;59.70;;;;;;4957588;28;20459;-79
2021/06/19 08:28:35;;;;;;;37.60;34.80;;;28.90;59.90;;;;;;4960075;28;20976;-82
2021/06/19 08:31:03;;;;;;;38.60;35.90;;;28.90;59.90;;;;;;4961477;28;20469;-79
2021/06/19 08:33:30;;;;;;;40.13;37.37;;;29.00;59.90;;;;;;4962266;28;20970;-80
2021/06/19 08:35:58;;;;;;;37.93;34.63;;;28.90;60.70;;;;;;4962563;28;21052;-80
2021/06/19 08:38:25;;;;;;;37.80;34.90;;;29.20;60.70;;;;;;4955066;28;20495;-79
2021/06/19 08:40:52;;;;;;;42.23;38.90;;;29.40;60.00;;;;;;4960623;28;20481;-81
2021/06/19 08:43:24;;;;;;;37.93;35.37;;;29.60;59.80;;;;;;4958452;28;20581;-79
2021/06/19 08:45:52;;;;;;;41.00;38.10;;;29.80;59.60;;;;;;4974994;28;20523;-80
2021/06/19 08:48:20;;;;;;;38.23;35.77;;;30.00;59.60;;;;;;4966590;28;20583;-80
2021/06/19 08:50:47;;;;;;;40.10;37.13;;;30.10;59.00;;;;;;4969579;28;20469;-81
2021/06/19 08:53:20;;;;;;;39.33;36.53;;;30.20;58.70;;;;;;4961893;28;20489;-82
2021/06/19 08:55:48;;;;;;;38.90;35.90;;;30.50;58.60;;;;;;4963659;28;20820;-82
2021/06/19 08:58:14;;;;;;;37.87;34.83;;;30.50;58.70;;;;;;4959129;28;20482;-81
2021/06/19 09:00:42;;;;;;;41.10;37.93;;;30.50;58.60;;;;;;4962548;28;20490;-81
2021/06/19 09:03:21;;;;;;;41.00;37.90;;;30.60;58.50;;;;;;4957520;28;20500;-82
2021/06/19 09:05:48;;;;;;;43.07;39.57;;;30.60;58.30;;;;;;4957429;28;20473;-81
2021/06/19 09:08:17;;;;;;;39.07;36.00;;;30.60;58.40;;;;;;4966469;28;20960;-82
2021/06/19 09:10:44;;;;;;;41.83;38.07;;;30.60;58.00;;;;;;4957037;28;20469;-80
2021/06/19 09:13:12;;;;;;;41.27;37.70;;;30.50;59.00;;;;;;4969242;28;20581;-80
2021/06/19 09:15:43;;;;;;;39.53;36.87;;;30.60;59.10;;;;;;4975245;28;20506;-80
2021/06/19 09:18:16;;;;;;;41.27;38.13;;;30.50;59.50;;;;;;4986850;28;20578;-80
2021/06/19 09:20:49;;;;;;;42.80;39.40;;;30.60;59.50;;;;;;4964382;28;20477;-79
2021/06/19 09:23:20;;;;;;;40.93;37.87;;;30.50;59.20;;;;;;4982277;28;20474;-80
2021/06/19 09:25:47;;;;;;;39.00;36.23;;;30.50;58.40;;;;;;4978058;28;20466;-80
2021/06/19 09:28:14;;;;;;;39.33;36.40;;;30.50;58.60;;;;;;4962850;28;20465;-82
2021/06/19 09:30:41;;;;;;;43.10;40.30;;;30.60;58.80;;;;;;4959981;28;20463;-80
2021/06/19 09:33:11;;;;;;;43.20;40.07;;;30.70;58.20;;;;;;4964510;28;21014;-81
2021/06/19 09:35:39;;;;;;;43.43;39.43;;;30.70;58.50;;;;;;4971970;28;20463;-82
2021/06/19 09:38:08;;;;;;;40.47;37.33;;;30.70;58.50;;;;;;4969547;28;21019;-81
2021/06/19 09:40:38;;;;;;;42.13;39.03;;;30.50;59.30;;;;;;4960553;28;20469;-81
2021/06/19 09:43:16;;;;;;;40.97;38.03;;;30.30;59.70;;;;;;4965117;28;20891;-81
2021/06/19 09:45:46;;;;;;;43.03;39.67;;;30.50;59.80;;;;;;4981920;28;20470;-80
2021/06/19 09:48:24;;;;;;;41.83;38.93;;;30.50;59.70;;;;;;4971330;28;20463;-81
2021/06/19 09:51:11;;;;;;;44.33;41.13;;;30.40;59.80;;;;;;4970789;28;20494;-82
2021/06/19 09:53:38;;;;;;;42.37;39.27;;;30.60;59.70;;;;;;4962987;28;20855;-80
2021/06/19 09:56:09;;;;;;;41.23;37.63;;;30.70;58.50;;;;;;4960982;28;20546;-80
2021/06/19 09:58:40;;;;;;;39.53;36.53;;;30.90;57.70;;;;;;4958285;28;20561;-80
2021/06/19 10:01:08;;;;;;;44.23;40.17;;;30.70;58.20;;;;;;4970049;28;20933;-86
2021/06/19 10:03:57;;;;;;;39.83;36.97;;;30.60;58.10;;;;;;4975749;28;20478;-79
2021/06/19 10:06:25;;;;;;;41.87;38.90;;;30.60;58.50;;;;;;4977600;28;20469;-80
2021/06/19 10:08:53;;;;;;;39.10;36.40;;;30.80;58.50;;;;;;4958048;28;20495;-80
2021/06/19 10:11:26;;;;;;;44.67;41.77;;;31.10;57.40;;;;;;4964831;28;20538;-80
2021/06/19 10:13:54;;;;;;;39.97;36.87;;;31.20;57.50;;;;;;4984725;28;20479;-80
2021/06/19 10:16:24;;;;;;;40.87;37.50;;;31.20;56.50;;;;;;4979880;28;20486;-79
2021/06/19 10:18:52;;;;;;;41.60;38.60;;;31.10;55.40;;;;;;4962642;28;20509;-80
2021/06/19 10:21:21;;;;;;;41.60;38.60;;;31.00;55.90;;;;;;4969527;28;20457;-80
2021/06/19 10:23:48;;;;;;;38.77;35.80;;;31.10;55.40;;;;;;4964279;28;20489;-80
2021/06/19 10:26:21;;;;;;;42.33;38.80;;;31.30;55.10;;;;;;4961473;28;20472;-82
2021/06/19 10:28:52;;;;;;;40.27;37.00;;;31.20;55.30;;;;;;4971562;28;20573;-81
2021/06/19 10:31:19;;;;;;;40.70;37.70;;;31.50;54.50;;;;;;4962374;28;20459;-81
2021/06/19 10:33:47;;;;;;;43.00;39.70;;;31.60;54.20;;;;;;4956092;28;20478;-78
2021/06/19 10:36:15;;;;;;;42.60;39.40;;;31.80;53.70;;;;;;4952349;28;20467;-79
2021/06/19 10:38:51;;;;;;;40.00;36.60;;;31.80;53.30;;;;;;4981297;28;20487;-80
2021/06/19 10:41:20;;;;;;;38.60;35.60;;;31.80;53.40;;;;;;4982168;28;21038;-85
2021/06/19 10:43:50;;;;;;;41.40;38.10;;;32.10;52.80;;;;;;4967810;28;21245;-82
2021/06/19 10:46:32;;;;;;;41.17;38.27;;;32.10;53.00;;;;;;4973112;28;20561;-82
2021/06/19 10:49:03;;;;;;;42.83;40.00;;;32.20;53.60;;;;;;4971815;28;20540;-82
2021/06/19 10:51:33;;;;;;;40.20;37.37;;;32.00;53.50;;;;;;4967184;28;20489;-82
2021/06/19 10:54:14;;;;;;;38.33;35.40;;;31.80;53.80;;;;;;4973583;28;20487;-82
2021/06/19 10:56:51;;;;;;;39.77;36.57;;;32.10;53.90;;;;;;4969909;28;20556;-82
2021/06/19 10:59:21;;;;;;;39.60;36.70;;;32.40;51.30;;;;;;4973609;28;20478;-75
2021/06/19 11:01:48;;;;;;;42.33;38.83;;;32.50;51.10;;;;;;4972561;28;20470;-78
2021/06/19 11:04:44;;;;;;;38.90;36.20;;;32.60;51.20;;;;;;4952452;28;21027;-77
2021/06/19 11:07:50;;;;;;;39.67;36.57;;;32.60;51.80;;;;;;4958688;28;20564;-78
2021/06/19 11:10:55;;;;;;;37.77;34.27;;;32.60;52.20;;;;;;4963369;28;20565;-79
2021/06/19 11:13:41;;;;;;;40.70;37.30;;;32.80;52.10;;;;;;4967935;28;20486;-80
2021/06/19 11:16:50;;;;;;;44.70;41.60;;;33.00;51.00;;;;;;4975451;28;20471;-80
2021/06/19 11:19:40;;;;;;;41.40;38.20;;;33.20;50.70;;;;;;4971510;28;20594;-81
2021/06/19 11:22:27;;;;;;;38.57;35.53;;;33.40;50.50;;;;;;4971489;28;20467;-79
2021/06/19 11:25:25;;;;;;;38.30;35.40;;;33.50;49.40;;;;;;4972863;28;20490;-79
2021/06/19 11:27:57;;;;;;;37.60;34.57;;;33.50;49.80;;;;;;4964779;28;20459;-79
2021/06/19 11:30:54;;;;;;;48.27;40.97;;;33.50;49.60;;;;;;4962618;28;20471;-74
2021/06/19 11:33:44;;;;;;;44.43;40.50;;;33.30;50.20;;;;;;5000081;28;20476;-76
2021/06/19 11:36:33;;;;;;;43.30;39.70;;;33.40;49.60;;;;;;4962787;28;21035;-77
2021/06/19 11:39:15;;;;;;;38.40;35.60;;;33.50;49.50;;;;;;4962896;28;20581;-76
2021/06/19 11:41:49;;;;;;;36.57;34.13;;;33.60;49.10;;;;;;4959934;28;20466;-76
2021/06/19 11:44:21;;;;;;;39.60;36.10;;;33.60;49.60;;;;;;4961119;28;21003;-77
2021/06/19 11:46:53;;;;;;;38.30;35.50;;;33.90;48.30;;;;;;4953192;28;20821;-78
2021/06/19 11:49:30;;;;;;;40.57;37.27;;;33.90;47.40;;;;;;4962279;28;20482;-76
2021/06/19 11:51:59;;;;;;;38.97;36.00;;;34.00;47.30;;;;;;4961567;28;20979;-79
2021/06/19 11:54:26;;;;;;;37.63;34.43;;;34.10;47.60;;;;;;4965428;28;20543;-82
2021/06/19 11:56:55;;;;;;;39.57;36.60;;;33.90;47.50;;;;;;5012141;28;20466;-82
2021/06/19 11:59:22;;;;;;;41.03;37.73;;;33.60;47.80;;;;;;4978348;28;20481;-82
2021/06/19 12:01:50;;;;;;;42.10;38.60;;;33.60;46.90;;;;;;4977830;28;20550;-84
2021/06/19 12:04:18;;;;;;;42.93;39.30;;;33.90;47.30;;;;;;4972440;28;20510;-83
2021/06/19 12:06:50;;;;;;;41.80;38.67;;;34.20;47.10;;;;;;4971882;28;20476;-84
2021/06/19 12:09:19;;;;;;;40.70;37.90;;;34.60;46.50;;;;;;4965854;28;20475;-83
2021/06/19 12:11:48;;;;;;;37.50;35.00;;;35.00;45.50;;;;;;4980371;28;20550;-81
2021/06/19 12:14:20;;;;;;;36.87;33.77;;;35.00;44.20;;;;;;4963948;28;20986;-80
2021/06/19 12:16:50;;;;;;;41.47;38.20;;;35.20;44.10;;;;;;4965714;28;20469;-79
2021/06/19 12:19:17;;;;;;;39.47;36.77;;;35.30;44.90;;;;;;4965301;28;20490;-79
2021/06/19 12:21:46;;;;;;;38.63;35.23;;;35.60;43.20;;;;;;4963545;28;20565;-79
2021/06/19 12:24:23;;;;;;;36.70;33.67;;;35.80;43.20;;;;;;4962671;28;20543;-78
2021/06/19 12:27:06;;;;;;;39.07;36.07;;;36.00;42.50;;;;;;4960563;28;20481;-81
2021/06/19 12:29:35;;;;;;;38.30;35.23;;;36.20;41.90;;;;;;4967593;28;20865;-79
2021/06/19 12:32:17;;;;;;;38.00;35.25;;;36.40;42.30;;;;;;4977205;28;20968;-78
2021/06/19 12:34:44;;;;;;;38.53;35.40;;;36.80;42.50;;;;;;4992156;28;20298;-79
2021/06/19 12:37:12;;;;;;;36.37;33.30;;;36.80;42.30;;;;;;4969923;28;20477;-79
2021/06/19 12:39:39;;;;;;;38.20;35.23;;;36.90;40.30;;;;;;4974485;28;20493;-83